sensor_id;sensor_type;location;lat;lon;timestamp;P1;durP1;ratioP1;P2;durP2;ratioP2
4577;SDS011;2301;47.354;8.528;2022-09-09T00:01:37;3.50;;;2.20;;
4577;SDS011;2301;47.354;8.528;2022-09-09T00:04:15;3.23;;;1.80;;
4577;SDS011;2301;47.354;8.528;2022-09-09T00:06:55;3.17;;;1.60;;
4577;SDS011;2301;47.354;8.528;2022-09-09T00:09:29;8.40;;;1.90;;
4577;SDS011;2301;47.354;8.528;2022-09-09T00:12:01;7.03;;;2.03;;
4577;SDS011;2301;47.354;8.528;2022-09-09T00:14:34;2.63;;;1.40;;
4577;SDS011;2301;47.354;8.528;2022-09-09T00:17:11;7.40;;;1.60;;
4577;SDS011;2301;47.354;8.528;2022-09-09T00:19:44;5.40;;;1.80;;
4577;SDS011;2301;47.354;8.528;2022-09-09T00:22:19;11.20;;;2.33;;
4577;SDS011;2301;47.354;8.528;2022-09-09T00:24:48;3.93;;;2.10;;
4577;SDS011;2301;47.354;8.528;2022-09-09T00:27:21;5.33;;;1.80;;
4577;SDS011;2301;47.354;8.528;2022-09-09T00:29:54;3.40;;;1.60;;
4577;SDS011;2301;47.354;8.528;2022-09-09T00:32:27;5.77;;;2.27;;
4577;SDS011;2301;47.354;8.528;2022-09-09T00:34:56;2.77;;;1.70;;
4577;SDS011;2301;47.354;8.528;2022-09-09T00:37:27;3.20;;;1.53;;
4577;SDS011;2301;47.354;8.528;2022-09-09T00:39:57;7.10;;;2.10;;
4577;SDS011;2301;47.354;8.528;2022-09-09T00:42:31;3.87;;;1.87;;
4577;SDS011;2301;47.354;8.528;2022-09-09T00:45:10;4.83;;;1.80;;
4577;SDS011;2301;47.354;8.528;2022-09-09T00:47:53;7.10;;;2.37;;
4577;SDS011;2301;47.354;8.528;2022-09-09T00:50:26;4.63;;;2.20;;
4577;SDS011;2301;47.354;8.528;2022-09-09T00:53:05;9.07;;;1.77;;
4577;SDS011;2301;47.354;8.528;2022-09-09T00:55:39;2.80;;;1.70;;
4577;SDS011;2301;47.354;8.528;2022-09-09T00:58:11;5.77;;;1.90;;
4577;SDS011;2301;47.354;8.528;2022-09-09T01:00:40;6.30;;;1.90;;
4577;SDS011;2301;47.354;8.528;2022-09-09T01:03:17;3.40;;;1.80;;
4577;SDS011;2301;47.354;8.528;2022-09-09T01:05:51;7.83;;;2.40;;
4577;SDS011;2301;47.354;8.528;2022-09-09T01:08:33;6.30;;;1.80;;
4577;SDS011;2301;47.354;8.528;2022-09-09T01:11:15;3.37;;;1.70;;
4577;SDS011;2301;47.354;8.528;2022-09-09T01:13:49;3.07;;;1.83;;
4577;SDS011;2301;47.354;8.528;2022-09-09T01:16:24;7.20;;;1.80;;
4577;SDS011;2301;47.354;8.528;2022-09-09T01:18:54;4.33;;;1.80;;
4577;SDS011;2301;47.354;8.528;2022-09-09T01:21:25;11.33;;;1.57;;
4577;SDS011;2301;47.354;8.528;2022-09-09T01:24:09;2.57;;;1.73;;
4577;SDS011;2301;47.354;8.528;2022-09-09T01:26:47;2.37;;;1.80;;
4577;SDS011;2301;47.354;8.528;2022-09-09T01:29:17;5.70;;;1.60;;
4577;SDS011;2301;47.354;8.528;2022-09-09T01:31:52;2.40;;;1.53;;
4577;SDS011;2301;47.354;8.528;2022-09-09T01:34:21;2.60;;;1.70;;
4577;SDS011;2301;47.354;8.528;2022-09-09T01:36:49;7.67;;;3.07;;
4577;SDS011;2301;47.354;8.528;2022-09-09T01:39:22;3.30;;;2.50;;
4577;SDS011;2301;47.354;8.528;2022-09-09T01:41:51;4.70;;;2.47;;
4577;SDS011;2301;47.354;8.528;2022-09-09T01:44:19;7.00;;;2.30;;
4577;SDS011;2301;47.354;8.528;2022-09-09T01:46:46;9.83;;;2.60;;
4577;SDS011;2301;47.354;8.528;2022-09-09T01:49:13;9.10;;;2.87;;
4577;SDS011;2301;47.354;8.528;2022-09-09T01:51:42;10.43;;;2.63;;
4577;SDS011;2301;47.354;8.528;2022-09-09T01:54:10;4.93;;;2.40;;
4577;SDS011;2301;47.354;8.528;2022-09-09T01:56:40;4.13;;;2.30;;
4577;SDS011;2301;47.354;8.528;2022-09-09T01:59:17;12.60;;;2.57;;
4577;SDS011;2301;47.354;8.528;2022-09-09T02:02:07;6.53;;;1.87;;
4577;SDS011;2301;47.354;8.528;2022-09-09T02:04:37;5.00;;;2.77;;
4577;SDS011;2301;47.354;8.528;2022-09-09T02:07:09;4.80;;;2.30;;
4577;SDS011;2301;47.354;8.528;2022-09-09T02:09:49;11.10;;;2.53;;
4577;SDS011;2301;47.354;8.528;2022-09-09T02:12:21;16.97;;;2.97;;
4577;SDS011;2301;47.354;8.528;2022-09-09T02:14:55;7.83;;;2.37;;
4577;SDS011;2301;47.354;8.528;2022-09-09T02:17:25;8.73;;;2.50;;
4577;SDS011;2301;47.354;8.528;2022-09-09T02:19:57;8.03;;;2.60;;
4577;SDS011;2301;47.354;8.528;2022-09-09T02:22:29;4.07;;;2.10;;
4577;SDS011;2301;47.354;8.528;2022-09-09T02:25:00;5.60;;;2.90;;
4577;SDS011;2301;47.354;8.528;2022-09-09T02:27:30;7.40;;;2.77;;
4577;SDS011;2301;47.354;8.528;2022-09-09T02:29:59;6.33;;;2.70;;
4577;SDS011;2301;47.354;8.528;2022-09-09T02:32:28;8.93;;;2.57;;
4577;SDS011;2301;47.354;8.528;2022-09-09T02:34:58;3.40;;;2.00;;
4577;SDS011;2301;47.354;8.528;2022-09-09T02:37:31;6.60;;;2.07;;
4577;SDS011;2301;47.354;8.528;2022-09-09T02:40:02;12.87;;;3.20;;
4577;SDS011;2301;47.354;8.528;2022-09-09T02:42:29;3.67;;;2.50;;
4577;SDS011;2301;47.354;8.528;2022-09-09T02:44:56;5.80;;;2.50;;
4577;SDS011;2301;47.354;8.528;2022-09-09T02:47:26;4.43;;;2.00;;
4577;SDS011;2301;47.354;8.528;2022-09-09T02:49:59;3.20;;;2.07;;
4577;SDS011;2301;47.354;8.528;2022-09-09T02:52:34;8.43;;;2.77;;
4577;SDS011;2301;47.354;8.528;2022-09-09T02:55:11;7.23;;;2.50;;
4577;SDS011;2301;47.354;8.528;2022-09-09T02:57:43;5.17;;;2.27;;
4577;SDS011;2301;47.354;8.528;2022-09-09T03:00:13;6.83;;;2.60;;
4577;SDS011;2301;47.354;8.528;2022-09-09T03:02:42;9.30;;;2.03;;
4577;SDS011;2301;47.354;8.528;2022-09-09T03:05:10;4.13;;;2.30;;
4577;SDS011;2301;47.354;8.528;2022-09-09T03:07:38;7.07;;;2.33;;
4577;SDS011;2301;47.354;8.528;2022-09-09T03:10:05;11.80;;;2.70;;
4577;SDS011;2301;47.354;8.528;2022-09-09T03:12:35;6.70;;;1.80;;
4577;SDS011;2301;47.354;8.528;2022-09-09T03:15:03;10.23;;;1.40;;
4577;SDS011;2301;47.354;8.528;2022-09-09T03:17:31;3.80;;;1.40;;
4577;SDS011;2301;47.354;8.528;2022-09-09T03:20:00;2.00;;;1.00;;
4577;SDS011;2301;47.354;8.528;2022-09-09T03:22:28;4.57;;;1.47;;
4577;SDS011;2301;47.354;8.528;2022-09-09T03:24:56;5.43;;;1.30;;
4577;SDS011;2301;47.354;8.528;2022-09-09T03:27:22;1.87;;;1.57;;
4577;SDS011;2301;47.354;8.528;2022-09-09T03:29:50;2.17;;;1.40;;
4577;SDS011;2301;47.354;8.528;2022-09-09T03:32:17;2.20;;;1.30;;
4577;SDS011;2301;47.354;8.528;2022-09-09T03:34:47;4.53;;;1.30;;
4577;SDS011;2301;47.354;8.528;2022-09-09T03:37:16;1.63;;;1.40;;
4577;SDS011;2301;47.354;8.528;2022-09-09T03:39:43;5.80;;;1.60;;
4577;SDS011;2301;47.354;8.528;2022-09-09T03:42:11;3.47;;;1.30;;
4577;SDS011;2301;47.354;8.528;2022-09-09T03:44:43;1.70;;;1.10;;
4577;SDS011;2301;47.354;8.528;2022-09-09T03:47:15;3.77;;;1.33;;
4577;SDS011;2301;47.354;8.528;2022-09-09T03:49:42;2.20;;;1.10;;
4577;SDS011;2301;47.354;8.528;2022-09-09T03:52:09;1.83;;;1.23;;
4577;SDS011;2301;47.354;8.528;2022-09-09T03:54:38;2.87;;;1.37;;
4577;SDS011;2301;47.354;8.528;2022-09-09T03:57:06;3.73;;;1.57;;
4577;SDS011;2301;47.354;8.528;2022-09-09T03:59:33;1.67;;;1.10;;
4577;SDS011;2301;47.354;8.528;2022-09-09T04:02:00;1.43;;;1.23;;
4577;SDS011;2301;47.354;8.528;2022-09-09T04:04:27;1.67;;;1.10;;
4577;SDS011;2301;47.354;8.528;2022-09-09T04:06:55;2.30;;;0.93;;
4577;SDS011;2301;47.354;8.528;2022-09-09T04:09:23;1.30;;;1.17;;
4577;SDS011;2301;47.354;8.528;2022-09-09T04:11:51;1.37;;;1.03;;
4577;SDS011;2301;47.354;8.528;2022-09-09T04:14:20;2.40;;;1.10;;
4577;SDS011;2301;47.354;8.528;2022-09-09T04:16:47;2.03;;;1.07;;
4577;SDS011;2301;47.354;8.528;2022-09-09T04:19:14;2.50;;;1.27;;
4577;SDS011;2301;47.354;8.528;2022-09-09T04:21:41;1.63;;;1.03;;
4577;SDS011;2301;47.354;8.528;2022-09-09T04:24:08;7.50;;;1.53;;
4577;SDS011;2301;47.354;8.528;2022-09-09T04:26:35;4.60;;;1.20;;
4577;SDS011;2301;47.354;8.528;2022-09-09T04:29:04;4.40;;;1.40;;
4577;SDS011;2301;47.354;8.528;2022-09-09T04:31:33;4.60;;;1.30;;
4577;SDS011;2301;47.354;8.528;2022-09-09T04:34:00;1.73;;;1.33;;
4577;SDS011;2301;47.354;8.528;2022-09-09T04:36:30;2.53;;;1.47;;
4577;SDS011;2301;47.354;8.528;2022-09-09T04:38:58;2.80;;;1.07;;
4577;SDS011;2301;47.354;8.528;2022-09-09T04:41:26;5.30;;;1.40;;
4577;SDS011;2301;47.354;8.528;2022-09-09T04:43:53;3.60;;;1.50;;
4577;SDS011;2301;47.354;8.528;2022-09-09T04:46:22;2.93;;;1.47;;
4577;SDS011;2301;47.354;8.528;2022-09-09T04:48:49;2.50;;;1.47;;
4577;SDS011;2301;47.354;8.528;2022-09-09T04:51:18;5.27;;;1.50;;
4577;SDS011;2301;47.354;8.528;2022-09-09T04:53:45;4.97;;;1.70;;
4577;SDS011;2301;47.354;8.528;2022-09-09T04:56:14;4.10;;;1.63;;
4577;SDS011;2301;47.354;8.528;2022-09-09T04:58:42;3.53;;;1.50;;
4577;SDS011;2301;47.354;8.528;2022-09-09T05:01:11;1.57;;;1.30;;
4577;SDS011;2301;47.354;8.528;2022-09-09T05:03:40;2.60;;;1.50;;
4577;SDS011;2301;47.354;8.528;2022-09-09T05:06:08;4.87;;;1.37;;
4577;SDS011;2301;47.354;8.528;2022-09-09T05:08:36;3.13;;;1.43;;
4577;SDS011;2301;47.354;8.528;2022-09-09T05:11:04;4.17;;;1.70;;
4577;SDS011;2301;47.354;8.528;2022-09-09T05:13:38;3.17;;;1.53;;
4577;SDS011;2301;47.354;8.528;2022-09-09T05:16:05;3.17;;;1.70;;
4577;SDS011;2301;47.354;8.528;2022-09-09T05:18:32;4.50;;;1.63;;
4577;SDS011;2301;47.354;8.528;2022-09-09T05:21:00;4.47;;;1.40;;
4577;SDS011;2301;47.354;8.528;2022-09-09T05:23:27;5.93;;;1.83;;
4577;SDS011;2301;47.354;8.528;2022-09-09T05:25:55;6.73;;;1.93;;
4577;SDS011;2301;47.354;8.528;2022-09-09T05:28:23;4.93;;;1.90;;
4577;SDS011;2301;47.354;8.528;2022-09-09T05:31:00;5.07;;;2.00;;
4577;SDS011;2301;47.354;8.528;2022-09-09T05:33:30;5.03;;;1.77;;
4577;SDS011;2301;47.354;8.528;2022-09-09T05:36:00;5.13;;;1.80;;
4577;SDS011;2301;47.354;8.528;2022-09-09T05:38:28;4.80;;;1.63;;
4577;SDS011;2301;47.354;8.528;2022-09-09T05:40:56;7.03;;;1.73;;
4577;SDS011;2301;47.354;8.528;2022-09-09T05:43:23;3.10;;;1.83;;
4577;SDS011;2301;47.354;8.528;2022-09-09T05:45:58;8.53;;;2.00;;
4577;SDS011;2301;47.354;8.528;2022-09-09T05:48:29;2.93;;;1.47;;
4577;SDS011;2301;47.354;8.528;2022-09-09T05:50:57;6.90;;;1.80;;
4577;SDS011;2301;47.354;8.528;2022-09-09T05:53:25;7.40;;;1.70;;
4577;SDS011;2301;47.354;8.528;2022-09-09T05:56:02;4.13;;;1.60;;
4577;SDS011;2301;47.354;8.528;2022-09-09T05:58:30;6.10;;;1.90;;
4577;SDS011;2301;47.354;8.528;2022-09-09T06:01:01;4.23;;;1.63;;
4577;SDS011;2301;47.354;8.528;2022-09-09T06:03:29;10.30;;;1.90;;
4577;SDS011;2301;47.354;8.528;2022-09-09T06:05:57;7.60;;;1.70;;
4577;SDS011;2301;47.354;8.528;2022-09-09T06:08:26;4.33;;;1.73;;
4577;SDS011;2301;47.354;8.528;2022-09-09T06:10:53;7.10;;;2.17;;
4577;SDS011;2301;47.354;8.528;2022-09-09T06:13:27;7.20;;;2.13;;
4577;SDS011;2301;47.354;8.528;2022-09-09T06:15:54;4.73;;;1.70;;
4577;SDS011;2301;47.354;8.528;2022-09-09T06:18:22;4.30;;;1.70;;
4577;SDS011;2301;47.354;8.528;2022-09-09T06:20:58;3.20;;;1.50;;
4577;SDS011;2301;47.354;8.528;2022-09-09T06:23:30;5.90;;;1.80;;
4577;SDS011;2301;47.354;8.528;2022-09-09T06:26:01;6.00;;;1.70;;
4577;SDS011;2301;47.354;8.528;2022-09-09T06:28:30;3.87;;;1.63;;
4577;SDS011;2301;47.354;8.528;2022-09-09T06:30:58;2.50;;;1.50;;
4577;SDS011;2301;47.354;8.528;2022-09-09T06:33:25;9.13;;;1.30;;
4577;SDS011;2301;47.354;8.528;2022-09-09T06:35:53;3.10;;;1.43;;
4577;SDS011;2301;47.354;8.528;2022-09-09T06:38:22;2.00;;;1.03;;
4577;SDS011;2301;47.354;8.528;2022-09-09T06:40:53;3.50;;;1.47;;
4577;SDS011;2301;47.354;8.528;2022-09-09T06:43:21;3.60;;;1.50;;
4577;SDS011;2301;47.354;8.528;2022-09-09T06:45:54;4.00;;;1.67;;
4577;SDS011;2301;47.354;8.528;2022-09-09T06:48:22;2.13;;;1.20;;
4577;SDS011;2301;47.354;8.528;2022-09-09T06:50:51;2.83;;;1.30;;
4577;SDS011;2301;47.354;8.528;2022-09-09T06:53:19;5.83;;;1.40;;
4577;SDS011;2301;47.354;8.528;2022-09-09T06:55:46;1.67;;;1.33;;
4577;SDS011;2301;47.354;8.528;2022-09-09T06:58:14;2.30;;;1.33;;
4577;SDS011;2301;47.354;8.528;2022-09-09T07:00:41;3.30;;;1.60;;
4577;SDS011;2301;47.354;8.528;2022-09-09T07:03:09;1.83;;;1.43;;
4577;SDS011;2301;47.354;8.528;2022-09-09T07:05:36;4.63;;;1.57;;
4577;SDS011;2301;47.354;8.528;2022-09-09T07:08:17;4.30;;;1.20;;
4577;SDS011;2301;47.354;8.528;2022-09-09T07:10:45;4.07;;;1.50;;
4577;SDS011;2301;47.354;8.528;2022-09-09T07:13:23;3.43;;;1.60;;
4577;SDS011;2301;47.354;8.528;2022-09-09T07:15:50;3.23;;;1.63;;
4577;SDS011;2301;47.354;8.528;2022-09-09T07:18:18;4.60;;;1.30;;
4577;SDS011;2301;47.354;8.528;2022-09-09T07:23:50;3.40;;;1.20;;
4577;SDS011;2301;47.354;8.528;2022-09-09T07:26:23;2.20;;;1.40;;
4577;SDS011;2301;47.354;8.528;2022-09-09T07:29:14;2.70;;;1.30;;
4577;SDS011;2301;47.354;8.528;2022-09-09T07:31:49;3.63;;;1.40;;
4577;SDS011;2301;47.354;8.528;2022-09-09T07:34:24;3.10;;;1.30;;
4577;SDS011;2301;47.354;8.528;2022-09-09T07:36:51;2.80;;;1.20;;
4577;SDS011;2301;47.354;8.528;2022-09-09T07:39:19;1.53;;;1.20;;
4577;SDS011;2301;47.354;8.528;2022-09-09T07:41:46;2.87;;;1.40;;
4577;SDS011;2301;47.354;8.528;2022-09-09T07:44:25;2.33;;;1.47;;
4577;SDS011;2301;47.354;8.528;2022-09-09T07:47:13;2.07;;;1.20;;
4577;SDS011;2301;47.354;8.528;2022-09-09T07:49:41;6.73;;;1.67;;
4577;SDS011;2301;47.354;8.528;2022-09-09T07:52:08;1.90;;;1.17;;
4577;SDS011;2301;47.354;8.528;2022-09-09T07:54:35;1.67;;;1.20;;
4577;SDS011;2301;47.354;8.528;2022-09-09T07:57:03;3.13;;;1.30;;
4577;SDS011;2301;47.354;8.528;2022-09-09T07:59:32;5.40;;;1.50;;
4577;SDS011;2301;47.354;8.528;2022-09-09T08:01:58;2.47;;;1.50;;
4577;SDS011;2301;47.354;8.528;2022-09-09T08:04:26;2.00;;;1.17;;
4577;SDS011;2301;47.354;8.528;2022-09-09T08:06:54;5.90;;;1.63;;
4577;SDS011;2301;47.354;8.528;2022-09-09T08:09:22;3.50;;;1.63;;
4577;SDS011;2301;47.354;8.528;2022-09-09T08:11:52;2.27;;;1.50;;
4577;SDS011;2301;47.354;8.528;2022-09-09T08:14:19;1.93;;;1.30;;
4577;SDS011;2301;47.354;8.528;2022-09-09T08:16:49;4.17;;;1.50;;
4577;SDS011;2301;47.354;8.528;2022-09-09T08:19:17;1.30;;;1.10;;
4577;SDS011;2301;47.354;8.528;2022-09-09T08:21:44;2.70;;;1.20;;
4577;SDS011;2301;47.354;8.528;2022-09-09T08:24:12;2.60;;;1.27;;
4577;SDS011;2301;47.354;8.528;2022-09-09T08:26:40;3.30;;;1.30;;
4577;SDS011;2301;47.354;8.528;2022-09-09T08:29:09;2.20;;;1.20;;
4577;SDS011;2301;47.354;8.528;2022-09-09T08:31:39;6.00;;;1.77;;
4577;SDS011;2301;47.354;8.528;2022-09-09T08:34:09;2.00;;;1.57;;
4577;SDS011;2301;47.354;8.528;2022-09-09T08:36:36;2.80;;;1.20;;
4577;SDS011;2301;47.354;8.528;2022-09-09T08:39:06;3.10;;;1.40;;
4577;SDS011;2301;47.354;8.528;2022-09-09T08:41:39;2.50;;;1.20;;
4577;SDS011;2301;47.354;8.528;2022-09-09T08:44:19;3.83;;;1.33;;
4577;SDS011;2301;47.354;8.528;2022-09-09T08:46:57;3.27;;;1.27;;
4577;SDS011;2301;47.354;8.528;2022-09-09T08:49:36;6.00;;;2.40;;
4577;SDS011;2301;47.354;8.528;2022-09-09T08:52:15;4.10;;;1.50;;
4577;SDS011;2301;47.354;8.528;2022-09-09T08:54:45;4.20;;;3.73;;
4577;SDS011;2301;47.354;8.528;2022-09-09T08:57:14;7.83;;;2.00;;
4577;SDS011;2301;47.354;8.528;2022-09-09T08:59:46;2.53;;;1.80;;
4577;SDS011;2301;47.354;8.528;2022-09-09T09:02:14;1.23;;;1.13;;
4577;SDS011;2301;47.354;8.528;2022-09-09T09:04:51;6.47;;;1.80;;
4577;SDS011;2301;47.354;8.528;2022-09-09T09:07:28;1.60;;;1.40;;
4577;SDS011;2301;47.354;8.528;2022-09-09T09:10:08;3.63;;;1.40;;
4577;SDS011;2301;47.354;8.528;2022-09-09T09:12:43;8.13;;;1.30;;
4577;SDS011;2301;47.354;8.528;2022-09-09T09:15:14;4.10;;;1.47;;
4577;SDS011;2301;47.354;8.528;2022-09-09T09:17:46;5.53;;;1.30;;
4577;SDS011;2301;47.354;8.528;2022-09-09T09:20:15;3.47;;;1.50;;
4577;SDS011;2301;47.354;8.528;2022-09-09T09:22:47;2.30;;;1.30;;
4577;SDS011;2301;47.354;8.528;2022-09-09T09:25:16;1.90;;;1.23;;
4577;SDS011;2301;47.354;8.528;2022-09-09T09:27:47;4.10;;;1.43;;
4577;SDS011;2301;47.354;8.528;2022-09-09T09:30:20;3.43;;;1.33;;
4577;SDS011;2301;47.354;8.528;2022-09-09T09:32:50;2.60;;;1.20;;
4577;SDS011;2301;47.354;8.528;2022-09-09T09:35:23;4.70;;;1.50;;
4577;SDS011;2301;47.354;8.528;2022-09-09T09:37:50;6.23;;;1.80;;
4577;SDS011;2301;47.354;8.528;2022-09-09T09:40:18;2.57;;;1.10;;
4577;SDS011;2301;47.354;8.528;2022-09-09T09:42:50;3.67;;;1.50;;
4577;SDS011;2301;47.354;8.528;2022-09-09T09:45:26;4.50;;;1.70;;
4577;SDS011;2301;47.354;8.528;2022-09-09T09:48:00;5.13;;;1.97;;
4577;SDS011;2301;47.354;8.528;2022-09-09T09:50:30;4.73;;;1.70;;
4577;SDS011;2301;47.354;8.528;2022-09-09T09:52:58;3.87;;;1.40;;
4577;SDS011;2301;47.354;8.528;2022-09-09T09:55:28;7.20;;;1.90;;
4577;SDS011;2301;47.354;8.528;2022-09-09T09:58:02;8.70;;;1.70;;
4577;SDS011;2301;47.354;8.528;2022-09-09T10:00:31;2.10;;;1.67;;
4577;SDS011;2301;47.354;8.528;2022-09-09T10:02:59;3.77;;;1.37;;
4577;SDS011;2301;47.354;8.528;2022-09-09T10:05:28;3.53;;;1.70;;
4577;SDS011;2301;47.354;8.528;2022-09-09T10:08:00;8.40;;;1.40;;
4577;SDS011;2301;47.354;8.528;2022-09-09T10:10:32;3.00;;;1.40;;
4577;SDS011;2301;47.354;8.528;2022-09-09T10:13:09;2.97;;;1.60;;
4577;SDS011;2301;47.354;8.528;2022-09-09T10:15:44;2.93;;;1.33;;
4577;SDS011;2301;47.354;8.528;2022-09-09T10:18:34;5.87;;;2.60;;
4577;SDS011;2301;47.354;8.528;2022-09-09T10:21:11;3.80;;;1.37;;
4577;SDS011;2301;47.354;8.528;2022-09-09T10:23:49;3.90;;;1.50;;
4577;SDS011;2301;47.354;8.528;2022-09-09T10:26:29;3.30;;;1.30;;
4577;SDS011;2301;47.354;8.528;2022-09-09T10:29:07;2.87;;;1.30;;
4577;SDS011;2301;47.354;8.528;2022-09-09T10:31:48;3.27;;;1.50;;
4577;SDS011;2301;47.354;8.528;2022-09-09T10:34:24;4.30;;;1.73;;
4577;SDS011;2301;47.354;8.528;2022-09-09T10:37:11;4.03;;;1.77;;
4577;SDS011;2301;47.354;8.528;2022-09-09T10:39:48;3.10;;;1.57;;
4577;SDS011;2301;47.354;8.528;2022-09-09T10:42:23;1.83;;;1.30;;
4577;SDS011;2301;47.354;8.528;2022-09-09T10:44:59;7.90;;;1.87;;
4577;SDS011;2301;47.354;8.528;2022-09-09T10:47:38;6.37;;;1.70;;
4577;SDS011;2301;47.354;8.528;2022-09-09T10:50:40;4.03;;;1.30;;
4577;SDS011;2301;47.354;8.528;2022-09-09T10:53:17;5.27;;;1.70;;
4577;SDS011;2301;47.354;8.528;2022-09-09T10:55:51;1.83;;;1.33;;
4577;SDS011;2301;47.354;8.528;2022-09-09T10:58:22;3.13;;;1.40;;
4577;SDS011;2301;47.354;8.528;2022-09-09T11:00:53;3.70;;;2.07;;
4577;SDS011;2301;47.354;8.528;2022-09-09T11:03:26;3.33;;;1.70;;
4577;SDS011;2301;47.354;8.528;2022-09-09T11:05:56;3.47;;;1.57;;
4577;SDS011;2301;47.354;8.528;2022-09-09T11:08:30;2.57;;;1.53;;
4577;SDS011;2301;47.354;8.528;2022-09-09T11:11:00;3.33;;;1.40;;
4577;SDS011;2301;47.354;8.528;2022-09-09T11:13:30;5.17;;;1.80;;
4577;SDS011;2301;47.354;8.528;2022-09-09T11:16:10;3.73;;;1.37;;
4577;SDS011;2301;47.354;8.528;2022-09-09T11:18:47;3.80;;;1.37;;
4577;SDS011;2301;47.354;8.528;2022-09-09T11:21:15;3.47;;;1.20;;
4577;SDS011;2301;47.354;8.528;2022-09-09T11:23:49;6.40;;;1.63;;
4577;SDS011;2301;47.354;8.528;2022-09-09T11:26:22;3.50;;;1.40;;
4577;SDS011;2301;47.354;8.528;2022-09-09T11:28:57;4.33;;;1.63;;
4577;SDS011;2301;47.354;8.528;2022-09-09T11:31:38;10.23;;;2.27;;
4577;SDS011;2301;47.354;8.528;2022-09-09T11:34:19;5.03;;;1.80;;
4577;SDS011;2301;47.354;8.528;2022-09-09T11:37:05;1.47;;;1.20;;
4577;SDS011;2301;47.354;8.528;2022-09-09T11:42:35;5.50;;;2.03;;
4577;SDS011;2301;47.354;8.528;2022-09-09T11:45:09;3.03;;;1.60;;
4577;SDS011;2301;47.354;8.528;2022-09-09T11:47:51;4.00;;;1.40;;
4577;SDS011;2301;47.354;8.528;2022-09-09T11:50:29;2.07;;;1.30;;
4577;SDS011;2301;47.354;8.528;2022-09-09T11:56:08;7.97;;;1.90;;
4577;SDS011;2301;47.354;8.528;2022-09-09T11:58:39;3.00;;;1.60;;
4577;SDS011;2301;47.354;8.528;2022-09-09T12:01:27;2.57;;;1.30;;
4577;SDS011;2301;47.354;8.528;2022-09-09T12:07:03;3.27;;;1.70;;
4577;SDS011;2301;47.354;8.528;2022-09-09T12:09:33;4.93;;;1.63;;
4577;SDS011;2301;47.354;8.528;2022-09-09T12:12:22;1.77;;;1.43;;
4577;SDS011;2301;47.354;8.528;2022-09-09T12:14:59;8.00;;;1.70;;
4577;SDS011;2301;47.354;8.528;2022-09-09T12:17:29;3.43;;;1.40;;
4577;SDS011;2301;47.354;8.528;2022-09-09T12:20:09;1.43;;;1.33;;
4577;SDS011;2301;47.354;8.528;2022-09-09T12:22:43;2.07;;;1.40;;
4577;SDS011;2301;47.354;8.528;2022-09-09T12:25:30;2.83;;;1.30;;
4577;SDS011;2301;47.354;8.528;2022-09-09T12:28:08;3.00;;;1.40;;
4577;SDS011;2301;47.354;8.528;2022-09-09T12:30:41;4.00;;;1.40;;
4577;SDS011;2301;47.354;8.528;2022-09-09T12:33:16;1.80;;;1.30;;
4577;SDS011;2301;47.354;8.528;2022-09-09T12:35:44;1.80;;;1.60;;
4577;SDS011;2301;47.354;8.528;2022-09-09T12:38:17;2.10;;;1.20;;
4577;SDS011;2301;47.354;8.528;2022-09-09T12:40:55;3.93;;;1.40;;
4577;SDS011;2301;47.354;8.528;2022-09-09T12:43:25;2.60;;;1.30;;
4577;SDS011;2301;47.354;8.528;2022-09-09T12:45:54;4.50;;;1.47;;
4577;SDS011;2301;47.354;8.528;2022-09-09T12:48:27;1.77;;;1.20;;
4577;SDS011;2301;47.354;8.528;2022-09-09T12:50:58;3.20;;;1.50;;
4577;SDS011;2301;47.354;8.528;2022-09-09T12:53:26;3.30;;;1.10;;
4577;SDS011;2301;47.354;8.528;2022-09-09T12:55:57;1.80;;;1.40;;
4577;SDS011;2301;47.354;8.528;2022-09-09T12:58:26;1.80;;;1.30;;
4577;SDS011;2301;47.354;8.528;2022-09-09T13:00:57;1.70;;;1.30;;
4577;SDS011;2301;47.354;8.528;2022-09-09T13:03:26;2.07;;;1.03;;
4577;SDS011;2301;47.354;8.528;2022-09-09T13:05:57;4.20;;;1.20;;
4577;SDS011;2301;47.354;8.528;2022-09-09T13:08:37;1.47;;;1.20;;
4577;SDS011;2301;47.354;8.528;2022-09-09T13:11:06;1.20;;;1.10;;
4577;SDS011;2301;47.354;8.528;2022-09-09T13:13:37;3.50;;;1.43;;
4577;SDS011;2301;47.354;8.528;2022-09-09T13:16:16;1.30;;;1.10;;
4577;SDS011;2301;47.354;8.528;2022-09-09T13:18:46;2.80;;;1.30;;
4577;SDS011;2301;47.354;8.528;2022-09-09T13:21:13;1.33;;;1.23;;
4577;SDS011;2301;47.354;8.528;2022-09-09T13:23:41;1.17;;;1.07;;
4577;SDS011;2301;47.354;8.528;2022-09-09T13:26:20;2.20;;;1.20;;
4577;SDS011;2301;47.354;8.528;2022-09-09T13:28:49;2.20;;;1.47;;
4577;SDS011;2301;47.354;8.528;2022-09-09T13:31:22;2.33;;;1.10;;
4577;SDS011;2301;47.354;8.528;2022-09-09T13:33:53;1.27;;;1.17;;
4577;SDS011;2301;47.354;8.528;2022-09-09T13:36:27;1.37;;;1.27;;
4577;SDS011;2301;47.354;8.528;2022-09-09T13:38:56;3.47;;;1.10;;
4577;SDS011;2301;47.354;8.528;2022-09-09T13:41:26;1.70;;;1.13;;
4577;SDS011;2301;47.354;8.528;2022-09-09T13:43:58;2.10;;;1.00;;
4577;SDS011;2301;47.354;8.528;2022-09-09T13:46:28;1.40;;;1.20;;
4577;SDS011;2301;47.354;8.528;2022-09-09T13:48:59;3.33;;;1.30;;
4577;SDS011;2301;47.354;8.528;2022-09-09T13:51:35;1.50;;;1.20;;
4577;SDS011;2301;47.354;8.528;2022-09-09T13:54:04;3.50;;;1.43;;
4577;SDS011;2301;47.354;8.528;2022-09-09T13:56:32;5.17;;;1.40;;
4577;SDS011;2301;47.354;8.528;2022-09-09T13:59:02;1.83;;;0.90;;
4577;SDS011;2301;47.354;8.528;2022-09-09T14:01:30;2.23;;;1.20;;
4577;SDS011;2301;47.354;8.528;2022-09-09T14:03:59;4.03;;;1.17;;
4577;SDS011;2301;47.354;8.528;2022-09-09T14:06:27;1.67;;;1.57;;
4577;SDS011;2301;47.354;8.528;2022-09-09T14:08:55;7.77;;;1.10;;
4577;SDS011;2301;47.354;8.528;2022-09-09T14:11:22;2.43;;;1.33;;
4577;SDS011;2301;47.354;8.528;2022-09-09T14:13:49;1.20;;;1.10;;
4577;SDS011;2301;47.354;8.528;2022-09-09T14:16:18;2.10;;;1.33;;
4577;SDS011;2301;47.354;8.528;2022-09-09T14:18:46;1.60;;;1.30;;
4577;SDS011;2301;47.354;8.528;2022-09-09T14:21:14;1.70;;;1.07;;
4577;SDS011;2301;47.354;8.528;2022-09-09T14:23:41;9.80;;;1.57;;
4577;SDS011;2301;47.354;8.528;2022-09-09T14:26:08;5.30;;;1.40;;
4577;SDS011;2301;47.354;8.528;2022-09-09T14:28:35;4.40;;;1.20;;
4577;SDS011;2301;47.354;8.528;2022-09-09T14:31:04;1.53;;;0.90;;
4577;SDS011;2301;47.354;8.528;2022-09-09T14:33:32;3.63;;;1.37;;
4577;SDS011;2301;47.354;8.528;2022-09-09T14:36:00;1.67;;;1.20;;
4577;SDS011;2301;47.354;8.528;2022-09-09T14:38:29;3.53;;;1.40;;
4577;SDS011;2301;47.354;8.528;2022-09-09T14:40:57;3.10;;;1.13;;
4577;SDS011;2301;47.354;8.528;2022-09-09T14:43:24;4.30;;;1.60;;
4577;SDS011;2301;47.354;8.528;2022-09-09T14:45:52;4.33;;;1.53;;
4577;SDS011;2301;47.354;8.528;2022-09-09T14:48:19;5.37;;;1.60;;
4577;SDS011;2301;47.354;8.528;2022-09-09T14:50:48;6.00;;;1.50;;
4577;SDS011;2301;47.354;8.528;2022-09-09T14:53:16;7.67;;;1.80;;
4577;SDS011;2301;47.354;8.528;2022-09-09T14:55:43;3.83;;;1.80;;
4577;SDS011;2301;47.354;8.528;2022-09-09T14:58:11;2.60;;;1.53;;
4577;SDS011;2301;47.354;8.528;2022-09-09T15:00:39;3.07;;;1.20;;
4577;SDS011;2301;47.354;8.528;2022-09-09T15:03:06;2.50;;;1.33;;
4577;SDS011;2301;47.354;8.528;2022-09-09T15:05:33;3.83;;;1.53;;
4577;SDS011;2301;47.354;8.528;2022-09-09T15:08:03;4.33;;;1.40;;
4577;SDS011;2301;47.354;8.528;2022-09-09T15:10:30;2.63;;;1.40;;
4577;SDS011;2301;47.354;8.528;2022-09-09T15:12:58;2.50;;;1.57;;
4577;SDS011;2301;47.354;8.528;2022-09-09T15:15:25;4.40;;;1.50;;
4577;SDS011;2301;47.354;8.528;2022-09-09T15:17:52;2.93;;;1.10;;
4577;SDS011;2301;47.354;8.528;2022-09-09T15:20:19;2.40;;;1.20;;
4577;SDS011;2301;47.354;8.528;2022-09-09T15:22:46;3.77;;;1.30;;
4577;SDS011;2301;47.354;8.528;2022-09-09T15:25:15;3.73;;;1.50;;
4577;SDS011;2301;47.354;8.528;2022-09-09T15:27:43;2.80;;;1.40;;
4577;SDS011;2301;47.354;8.528;2022-09-09T15:30:10;4.70;;;1.20;;
4577;SDS011;2301;47.354;8.528;2022-09-09T15:32:38;5.33;;;1.40;;
4577;SDS011;2301;47.354;8.528;2022-09-09T15:35:05;3.63;;;1.37;;
4577;SDS011;2301;47.354;8.528;2022-09-09T15:37:32;1.40;;;1.10;;
4577;SDS011;2301;47.354;8.528;2022-09-09T15:39:59;3.20;;;1.03;;
4577;SDS011;2301;47.354;8.528;2022-09-09T15:42:28;4.10;;;1.53;;
4577;SDS011;2301;47.354;8.528;2022-09-09T15:44:55;2.63;;;1.43;;
4577;SDS011;2301;47.354;8.528;2022-09-09T15:47:22;4.13;;;1.30;;
4577;SDS011;2301;47.354;8.528;2022-09-09T15:49:49;2.10;;;1.10;;
4577;SDS011;2301;47.354;8.528;2022-09-09T15:52:15;1.50;;;1.00;;